Time;durP1;ratioP1;P1;durP2;ratioP2;P2;SDS_P1;SDS_P2;PMS_P1;PMS_P2;Temp;Humidity;BMP_temperature;BMP_pressure;BME280_temperature;BME280_humidity;BME280_pressure;Samples;Min_cycle;Max_cycle;Signal;HPM_P1;HPM_P2
2022/10/07 00:01:47;;;;;;;15.77;5.93;;;12.40;99.90;;;;;;4928363;29;20040;-85
2022/10/07 00:04:13;;;;;;;6.50;2.85;;;12.40;99.90;;;;;;4910840;29;20060;-85
2022/10/07 00:06:39;;;;;;;10.80;4.40;;;12.40;99.90;;;;;;4909636;29;20048;-85
2022/10/07 00:09:05;;;;;;;10.52;3.80;;;12.40;99.90;;;;;;4909404;29;20047;-85
2022/10/07 00:11:31;;;;;;;4.93;2.42;;;;;;;;;;4910514;29;20033;-85
2022/10/07 00:14:01;;;;;;;3.33;2.38;;;12.30;99.90;;;;;;4910622;29;20487;-85
2022/10/07 00:16:36;;;;;;;17.60;3.27;;;12.30;99.90;;;;;;4921306;29;20042;-85
2022/10/07 00:19:04;;;;;;;6.85;3.33;;;12.30;99.90;;;;;;4929121;29;20036;-85
2022/10/07 00:21:32;;;;;;;2.72;2.15;;;12.30;99.90;;;;;;4927957;29;20474;-85
2022/10/07 00:23:58;;;;;;;10.63;3.83;;;12.30;99.90;;;;;;4921473;29;20033;-85
2022/10/07 00:26:27;;;;;;;4.97;2.75;;;12.30;99.90;;;;;;4909208;29;20067;-85
2022/10/07 00:28:53;;;;;;;4.32;3.10;;;12.20;99.90;;;;;;4909146;29;20033;-85
2022/10/07 00:31:22;;;;;;;2.80;2.40;;;12.20;99.90;;;;;;4910620;29;20060;-85
2022/10/07 00:33:49;;;;;;;7.32;3.50;;;12.10;99.90;;;;;;4925312;29;20028;-85
2022/10/07 00:36:24;;;;;;;9.13;3.40;;;12.10;99.90;;;;;;4927983;29;20044;-85
2022/10/07 00:38:56;;;;;;;12.52;4.07;;;12.10;99.90;;;;;;4928316;29;20032;-85
2022/10/07 00:41:27;;;;;;;14.63;3.80;;;12.10;99.90;;;;;;4929443;29;20032;-85
2022/10/07 00:43:54;;;;;;;8.30;4.47;;;;;;;;;;4927906;29;20107;-85
2022/10/07 00:46:28;;;;;;;7.20;3.28;;;12.10;99.90;;;;;;4928756;29;20426;-85
2022/10/07 00:48:59;;;;;;;5.43;4.05;;;12.00;99.90;;;;;;4927926;29;20028;-85
2022/10/07 00:51:26;;;;;;;7.65;3.13;;;12.00;99.90;;;;;;4912390;29;20044;-85
2022/10/07 00:53:55;;;;;;;9.95;4.22;;;12.00;99.90;;;;;;4929097;29;20036;-85
2022/10/07 00:56:22;;;;;;;8.70;2.40;;;12.00;99.90;;;;;;4927885;29;20048;-85
2022/10/07 00:58:50;;;;;;;5.88;2.53;;;11.90;99.90;;;;;;4927921;29;20043;-85
2022/10/07 01:01:17;;;;;;;5.07;2.67;;;11.90;99.90;;;;;;4927461;29;20088;-85
2022/10/07 01:03:46;;;;;;;7.20;3.22;;;11.90;99.90;;;;;;4914955;29;20051;-85
2022/10/07 01:06:13;;;;;;;5.75;3.50;;;11.80;99.90;;;;;;4931707;29;20462;-85
2022/10/07 01:08:39;;;;;;;8.20;2.72;;;12.00;99.90;;;;;;4931215;29;20059;-84
2022/10/07 01:11:16;;;;;;;11.68;2.83;;;11.80;99.90;;;;;;4931201;29;20016;-85
2022/10/07 01:14:06;;;;;;;8.15;2.90;;;11.80;99.90;;;;;;4932500;29;20028;-85
2022/10/07 01:16:56;;;;;;;6.70;2.53;;;11.80;99.90;;;;;;4930769;29;20473;-85
2022/10/07 01:19:25;;;;;;;;;;;11.70;99.90;;;;;;4915864;29;20036;-85
2022/10/07 01:22:23;;;;;;;3.65;2.58;;;11.80;99.90;;;;;;4931320;29;19918;-85
2022/10/07 01:25:08;;;;;;;9.35;3.40;;;11.70;99.90;;;;;;4919248;29;20048;-85
2022/10/07 01:27:35;;;;;;;8.13;3.13;;;11.70;99.90;;;;;;4913396;29;20036;-85
2022/10/07 01:30:04;;;;;;;2.78;2.28;;;11.70;99.90;;;;;;4912073;29;20033;-85
2022/10/07 01:32:36;;;;;;;10.55;4.10;;;11.70;99.90;;;;;;4930772;29;20032;-85
2022/10/07 01:35:11;;;;;;;4.40;2.47;;;11.70;99.90;;;;;;4918117;29;20478;-85
2022/10/07 01:37:42;;;;;;;10.93;3.55;;;11.70;99.90;;;;;;4911969;29;20123;-85
2022/10/07 01:40:32;;;;;;;4.32;2.25;;;11.70;99.90;;;;;;4916426;29;20367;-85
2022/10/07 01:43:00;;;;;;;8.57;3.13;;;11.60;99.90;;;;;;4930868;29;20518;-84
2022/10/07 01:45:29;;;;;;;6.75;2.65;;;11.70;99.90;;;;;;4930670;29;20035;-85
2022/10/07 01:47:55;;;;;;;6.93;3.17;;;11.70;99.90;;;;;;4930470;29;20024;-84
2022/10/07 01:50:26;;;;;;;9.90;3.05;;;11.70;99.90;;;;;;4930796;29;20021;-85
2022/10/07 01:53:39;;;;;;;4.85;2.17;;;11.70;99.90;;;;;;4930841;29;20020;-85
2022/10/07 01:56:23;;;;;;;8.23;2.00;;;11.70;99.90;;;;;;4930234;29;20036;-85
2022/10/07 01:59:11;;;;;;;23.45;6.28;;;11.70;99.90;;;;;;4930458;29;20030;-85
2022/10/07 02:02:07;;;;;;;3.40;2.30;;;11.70;99.90;;;;;;4931661;29;20093;-85
2022/10/07 02:04:48;;;;;;;9.90;3.78;;;11.70;99.90;;;;;;4930122;29;20052;-85
2022/10/07 02:07:52;;;;;;;5.50;3.15;;;11.60;99.90;;;;;;4930383;29;20057;-85
2022/10/07 02:10:44;;;;;;;4.47;3.75;;;11.70;99.90;;;;;;4930235;29;20050;-85
2022/10/07 02:13:35;;;;;;;8.95;3.30;;;11.70;99.90;;;;;;4931526;29;20020;-85
2022/10/07 02:16:36;;;;;;;6.15;2.63;;;11.60;99.90;;;;;;4930338;29;20103;-85
2022/10/07 02:19:07;;;;;;;5.25;1.83;;;11.60;99.90;;;;;;4930180;29;20056;-85
2022/10/07 02:21:35;;;;;;;9.98;3.22;;;11.60;99.90;;;;;;4914560;29;20032;-85
2022/10/07 02:24:02;;;;;;;4.85;2.28;;;11.60;99.90;;;;;;4927137;29;20021;-84
2022/10/07 02:26:31;;;;;;;6.43;2.70;;;11.60;99.90;;;;;;4910962;29;20092;-84
2022/10/07 02:29:00;;;;;;;3.78;1.63;;;11.60;99.90;;;;;;4912393;29;20100;-85
2022/10/07 02:31:30;;;;;;;6.85;3.38;;;11.50;99.90;;;;;;4910994;29;20024;-84
2022/10/07 02:34:00;;;;;;;7.18;3.45;;;11.50;99.90;;;;;;4910939;29;20052;-85
2022/10/07 02:36:31;;;;;;;13.90;3.53;;;11.50;99.90;;;;;;4910754;29;20052;-85
2022/10/07 02:39:00;;;;;;;6.68;2.88;;;11.50;99.90;;;;;;4914661;29;20029;-85
2022/10/07 02:41:45;;;;;;;7.20;2.58;;;11.70;99.90;;;;;;4929766;29;20024;-85
2022/10/07 02:44:37;;;;;;;5.25;2.47;;;11.50;99.90;;;;;;4929801;29;20037;-85
2022/10/07 02:47:13;;;;;;;11.70;3.30;;;11.40;99.90;;;;;;4929450;29;20068;-85
2022/10/07 02:49:41;;;;;;;13.48;3.28;;;11.40;99.90;;;;;;4929530;29;20096;-84
2022/10/07 02:52:12;;;;;;;8.38;2.90;;;11.40;99.90;;;;;;4929524;29;20028;-85
2022/10/07 02:55:00;;;;;;;6.80;2.30;;;11.60;99.90;;;;;;4921944;29;20486;-85
2022/10/07 02:57:31;;;;;;;5.88;2.85;;;11.40;99.90;;;;;;4929127;29;20036;-84
2022/10/07 02:59:59;;;;;;;7.45;3.00;;;11.40;99.90;;;;;;4929593;29;20038;-84
2022/10/07 03:02:38;;;;;;;8.15;3.03;;;11.40;99.90;;;;;;4929171;29;20035;-85
2022/10/07 03:05:06;;;;;;;5.90;2.35;;;11.30;99.90;;;;;;4913325;29;20063;-85
2022/10/07 03:07:34;;;;;;;5.17;3.50;;;;;;;;;;4913603;29;20028;-85
2022/10/07 03:10:00;;;;;;;5.57;2.80;;;11.30;99.90;;;;;;4929425;29;20348;-85
2022/10/07 03:12:27;;;;;;;6.53;3.85;;;11.30;99.90;;;;;;4928862;29;20516;-85
2022/10/07 03:14:53;;;;;;;19.58;2.30;;;11.30;99.90;;;;;;4929063;29;20067;-85
2022/10/07 03:17:20;;;;;;;7.80;3.58;;;11.30;99.90;;;;;;4945082;29;20044;-85
2022/10/07 03:19:48;;;;;;;11.55;3.65;;;11.30;99.90;;;;;;4928996;29;20032;-85
2022/10/07 03:22:14;;;;;;;5.97;2.33;;;11.30;99.90;;;;;;4929072;29;20051;-85
2022/10/07 03:24:42;;;;;;;7.18;2.15;;;;;;;;;;4920302;29;20110;-84
2022/10/07 03:27:08;;;;;;;4.95;2.53;;;11.20;99.90;;;;;;4909926;29;20024;-85
2022/10/07 03:29:36;;;;;;;9.38;2.88;;;11.20;99.90;;;;;;4909976;29;20422;-84
2022/10/07 03:32:03;;;;;;;15.82;4.00;;;11.30;99.90;;;;;;4911328;29;20057;-85
2022/10/07 03:34:31;;;;;;;15.43;3.17;;;11.20;99.90;;;;;;4909761;29;20096;-85
2022/10/07 03:36:58;;;;;;;8.20;3.25;;;11.20;99.90;;;;;;4910955;29;20045;-85
2022/10/07 03:39:24;;;;;;;4.35;2.72;;;11.30;99.90;;;;;;4894434;29;20067;-85
2022/10/07 03:41:50;;;;;;;10.23;2.10;;;11.20;99.90;;;;;;4911047;29;20056;-84
2022/10/07 03:44:18;;;;;;;3.13;2.22;;;11.20;99.90;;;;;;4928464;29;20124;-85
2022/10/07 03:46:48;;;;;;;3.90;2.03;;;11.20;99.90;;;;;;4928559;29;20039;-84
2022/10/07 03:49:15;;;;;;;5.15;2.92;;;;;;;;;;4930308;29;20044;-85
2022/10/07 03:51:41;;;;;;;4.68;2.65;;;;;;;;;;4912883;29;20125;-85
2022/10/07 03:54:08;;;;;;;5.00;2.47;;;11.20;99.90;;;;;;4912846;29;20036;-85
2022/10/07 03:56:34;;;;;;;9.40;2.45;;;11.20;99.90;;;;;;4912567;29;20035;-84
2022/10/07 03:59:00;;;;;;;3.55;2.70;;;11.20;99.90;;;;;;4928364;29;20052;-84
2022/10/07 04:01:30;;;;;;;7.82;3.72;;;11.20;99.90;;;;;;4928545;29;20390;-85
2022/10/07 04:04:00;;;;;;;11.85;3.88;;;11.20;99.90;;;;;;4928152;29;20091;-84
2022/10/07 04:06:30;;;;;;;4.05;2.03;;;11.10;99.90;;;;;;4928501;29;20024;-83
2022/10/07 04:08:56;;;;;;;5.80;2.28;;;11.20;99.90;;;;;;4928071;29;20029;-84
2022/10/07 04:11:23;;;;;;;10.73;3.95;;;11.10;99.90;;;;;;4912015;29;20088;-85
2022/10/07 04:13:52;;;;;;;8.30;2.57;;;11.10;99.90;;;;;;4928273;29;20050;-84
2022/10/07 04:16:21;;;;;;;13.48;2.80;;;11.10;99.90;;;;;;4928477;29;20024;-86
2022/10/07 04:18:47;;;;;;;13.50;2.90;;;11.10;99.90;;;;;;4928456;29;20127;-86
2022/10/07 04:21:14;;;;;;;9.43;3.20;;;11.10;99.90;;;;;;4928032;29;20536;-86
2022/10/07 04:23:41;;;;;;;7.00;3.45;;;11.20;99.90;;;;;;4928076;29;20040;-86
2022/10/07 04:26:11;;;;;;;5.43;2.58;;;11.20;99.90;;;;;;4921514;29;20020;-86
2022/10/07 04:28:41;;;;;;;2.92;2.30;;;11.20;99.90;;;;;;4909451;29;20029;-86
2022/10/07 04:31:10;;;;;;;9.30;4.25;;;11.20;99.90;;;;;;4909301;29;20059;-86
2022/10/07 04:33:41;;;;;;;8.63;2.90;;;11.20;99.90;;;;;;4909114;29;20048;-86
2022/10/07 04:36:09;;;;;;;9.52;2.95;;;11.20;99.90;;;;;;4909158;29;20442;-85
2022/10/07 04:38:54;;;;;;;6.30;3.15;;;11.20;99.90;;;;;;4914276;29;20076;-86
2022/10/07 04:41:25;;;;;;;5.32;3.13;;;11.20;99.90;;;;;;4930883;29;20034;-86
2022/10/07 04:43:51;;;;;;;5.32;3.38;;;;;;;;;;4933097;29;20123;-86
2022/10/07 04:46:18;;;;;;;3.10;2.03;;;11.20;99.90;;;;;;4915003;29;20115;-86
2022/10/07 04:48:52;;;;;;;8.85;2.38;;;11.30;99.90;;;;;;4922133;29;20039;-86
2022/10/07 04:51:22;;;;;;;;;;;11.20;99.90;;;;;;4926739;29;20028;-86
2022/10/07 04:53:53;;;;;;;15.20;5.43;;;11.20;99.90;;;;;;4921780;29;19922;-87
2022/10/07 04:56:23;;;;;;;7.97;2.40;;;11.20;99.90;;;;;;4924878;29;20383;-86
2022/10/07 04:58:49;;;;;;;6.05;2.97;;;11.30;99.90;;;;;;4931181;29;20398;-86
2022/10/07 05:01:17;;;;;;;12.23;3.90;;;11.20;99.90;;;;;;4927922;29;20033;-86
2022/10/07 05:03:45;;;;;;;10.93;2.42;;;11.20;99.90;;;;;;4927629;29;20116;-86
2022/10/07 05:06:12;;;;;;;11.13;3.75;;;11.20;99.90;;;;;;4921277;29;20040;-86
2022/10/07 05:08:42;;;;;;;8.90;2.90;;;11.00;99.90;;;;;;4923959;29;20017;-86
2022/10/07 05:11:11;;;;;;;8.05;2.30;;;11.10;99.90;;;;;;4910557;29;20017;-86
2022/10/07 05:13:52;;;;;;;9.50;3.78;;;11.10;99.90;;;;;;4892670;29;20032;-86
2022/10/07 05:16:19;;;;;;;12.40;3.08;;;11.10;99.90;;;;;;4927805;29;20064;-85
2022/10/07 05:18:45;;;;;;;6.03;2.65;;;;;;;;;;4924197;29;20035;-85
2022/10/07 05:21:13;;;;;;;2.38;2.03;;;11.00;99.90;;;;;;4925321;29;20031;-85
2022/10/07 05:23:46;;;;;;;7.45;3.03;;;11.10;99.90;;;;;;4924459;29;20036;-85
2022/10/07 05:26:17;;;;;;;6.07;3.22;;;11.10;99.90;;;;;;4912813;29;20028;-86
2022/10/07 05:28:48;;;;;;;9.15;2.97;;;11.10;99.90;;;;;;4927955;29;20020;-85
2022/10/07 05:31:19;;;;;;;;;;;11.10;99.90;;;;;;4925343;29;20033;-86
2022/10/07 05:33:50;;;;;;;6.53;2.75;;;11.00;99.90;;;;;;4923068;29;19912;-86
2022/10/07 05:36:18;;;;;;;7.43;2.95;;;11.00;99.90;;;;;;4914990;29;20100;-86
2022/10/07 05:38:45;;;;;;;10.60;2.80;;;11.00;99.90;;;;;;4924850;29;20020;-86
2022/10/07 05:41:11;;;;;;;9.55;2.88;;;11.00;99.90;;;;;;4897758;29;20052;-86
2022/10/07 05:43:42;;;;;;;10.63;4.28;;;11.00;99.90;;;;;;4911584;29;20036;-85
2022/10/07 05:46:16;;;;;;;8.95;3.35;;;11.00;99.90;;;;;;4930496;29;20038;-85
2022/10/07 05:48:48;;;;;;;8.43;3.28;;;11.00;99.90;;;;;;4927729;29;20024;-85
2022/10/07 05:51:15;;;;;;;6.25;3.20;;;11.00;99.90;;;;;;4898670;29;20024;-86
2022/10/07 05:53:41;;;;;;;7.50;3.97;;;;;;;;;;4929820;29;20060;-85
2022/10/07 05:56:11;;;;;;;7.97;2.95;;;11.10;99.90;;;;;;4914688;29;20040;-85
2022/10/07 05:58:38;;;;;;;6.57;3.13;;;11.00;99.90;;;;;;4919688;29;20037;-87
2022/10/07 06:01:09;;;;;;;3.78;2.58;;;11.30;99.90;;;;;;4915559;29;20024;-84
2022/10/07 06:03:36;;;;;;;2.78;1.75;;;11.10;99.90;;;;;;4917738;29;20063;-83
2022/10/07 06:06:01;;;;;;;7.78;2.53;;;11.10;99.90;;;;;;4936319;29;20037;-83
2022/10/07 06:08:28;;;;;;;8.88;2.47;;;11.00;99.90;;;;;;4927647;29;20028;-83
2022/10/07 06:13:51;;;;;;;8.70;2.47;;;11.00;99.90;;;;;;4936163;29;20417;-83
2022/10/07 06:16:18;;;;;;;10.90;4.13;;;11.10;99.90;;;;;;4936555;29;20008;-83
2022/10/07 06:18:44;;;;;;;9.60;3.10;;;11.00;99.90;;;;;;4935645;29;20087;-83
2022/10/07 06:21:11;;;;;;;7.00;3.55;;;11.10;99.90;;;;;;4935275;29;20056;-83
2022/10/07 06:23:37;;;;;;;10.13;4.60;;;11.10;99.90;;;;;;4930717;29;20028;-83
2022/10/07 06:26:09;;;;;;;10.32;3.75;;;11.00;99.90;;;;;;4933078;29;20036;-83
2022/10/07 06:28:40;;;;;;;6.95;3.10;;;11.00;99.90;;;;;;4932596;29;20032;-83
2022/10/07 06:31:10;;;;;;;8.10;2.63;;;11.00;99.90;;;;;;4917486;29;20043;-83
2022/10/07 06:33:37;;;;;;;8.50;4.10;;;11.00;99.90;;;;;;4916893;29;20035;-83
2022/10/07 06:36:05;;;;;;;12.23;3.90;;;11.00;99.90;;;;;;4932634;29;20114;-83
2022/10/07 06:38:31;;;;;;;9.88;3.47;;;11.00;99.90;;;;;;4933258;29;20095;-83
2022/10/07 06:41:02;;;;;;;9.50;4.03;;;11.10;99.90;;;;;;4933496;29;20032;-83
2022/10/07 06:43:32;;;;;;;13.30;4.32;;;11.10;99.90;;;;;;4933291;29;20043;-83
2022/10/07 06:46:06;;;;;;;18.33;4.85;;;11.10;99.90;;;;;;4918576;29;20036;-83
2022/10/07 06:48:34;;;;;;;5.05;2.90;;;11.10;99.90;;;;;;4934294;29;20026;-83
2022/10/07 06:51:02;;;;;;;14.55;4.07;;;11.10;99.90;;;;;;4923519;29;20043;-83
2022/10/07 06:53:31;;;;;;;9.90;3.60;;;11.10;99.90;;;;;;4935774;29;20055;-83
2022/10/07 06:56:04;;;;;;;7.63;3.25;;;11.10;99.90;;;;;;4933409;29;20055;-83
2022/10/07 06:58:33;;;;;;;22.92;4.68;;;11.10;99.90;;;;;;4920845;29;20035;-83
2022/10/07 07:01:01;;;;;;;4.47;2.28;;;11.10;99.90;;;;;;4934289;29;20020;-83
2022/10/07 07:03:28;;;;;;;8.18;4.57;;;11.10;99.90;;;;;;4918585;29;20044;-83
2022/10/07 07:05:55;;;;;;;6.53;3.28;;;11.20;99.90;;;;;;4934154;29;20556;-83
2022/10/07 07:08:28;;;;;;;7.22;3.80;;;11.10;99.90;;;;;;4918530;29;20034;-83
2022/10/07 07:10:55;;;;;;;10.95;4.70;;;11.20;99.90;;;;;;4932964;29;20035;-83
2022/10/07 07:13:21;;;;;;;10.07;4.03;;;11.20;99.90;;;;;;4932561;29;20028;-83
2022/10/07 07:15:58;;;;;;;6.55;3.45;;;11.20;99.90;;;;;;4917073;29;20083;-83
2022/10/07 07:18:26;;;;;;;4.78;2.92;;;11.30;99.90;;;;;;4916346;29;20047;-83
2022/10/07 07:20:52;;;;;;;6.05;3.10;;;11.20;99.90;;;;;;4924158;29;20024;-83
2022/10/07 07:23:19;;;;;;;13.48;4.90;;;11.20;99.90;;;;;;4940425;29;20016;-83
2022/10/07 07:25:45;;;;;;;8.23;3.78;;;11.20;99.90;;;;;;4925066;29;20012;-83
2022/10/07 07:28:13;;;;;;;12.88;3.10;;;11.30;99.90;;;;;;4940887;29;20001;-83
2022/10/07 07:30:39;;;;;;;6.47;1.77;;;11.30;99.90;;;;;;4940391;29;20052;-83
2022/10/07 07:33:06;;;;;;;7.65;2.95;;;11.30;99.90;;;;;;4941023;29;20020;-83
2022/10/07 07:35:37;;;;;;;9.15;3.33;;;11.30;99.90;;;;;;4924783;29;20142;-83
2022/10/07 07:38:03;;;;;;;3.47;1.83;;;11.30;99.90;;;;;;4925132;29;20035;-84
2022/10/07 07:40:30;;;;;;;3.92;2.60;;;11.40;99.90;;;;;;4924554;29;20040;-83
2022/10/07 07:42:57;;;;;;;7.35;2.33;;;11.40;99.90;;;;;;4923468;29;20009;-83
2022/10/07 07:45:23;;;;;;;8.13;2.38;;;11.40;99.90;;;;;;4923403;29;20127;-83
2022/10/07 07:47:50;;;;;;;6.68;3.22;;;11.40;99.90;;;;;;4924692;29;20012;-84
2022/10/07 07:50:19;;;;;;;3.10;2.85;;;11.40;99.90;;;;;;4925449;29;20019;-83
2022/10/07 07:52:46;;;;;;;;;;;11.40;99.90;;;;;;4941509;29;20014;-83
2022/10/07 07:55:13;;;;;;;9.60;2.55;;;11.50;99.90;;;;;;4940643;29;19902;-83
2022/10/07 07:57:39;;;;;;;4.95;2.38;;;11.50;99.90;;;;;;4923915;29;20025;-83
2022/10/07 08:00:10;;;;;;;3.45;3.00;;;11.50;99.90;;;;;;4924207;29;20053;-83
2022/10/07 08:02:58;;;;;;;8.52;3.65;;;11.50;99.90;;;;;;4938248;29;20020;-83
2022/10/07 08:05:24;;;;;;;2.80;1.95;;;11.50;99.90;;;;;;4937357;29;20040;-83
2022/10/07 08:07:53;;;;;;;8.43;3.22;;;11.60;99.90;;;;;;4938157;29;20019;-83
2022/10/07 08:10:20;;;;;;;10.40;2.00;;;11.60;99.90;;;;;;4922185;29;20092;-83
2022/10/07 08:12:46;;;;;;;12.77;2.47;;;11.70;99.90;;;;;;4920525;29;20043;-83
2022/10/07 08:15:13;;;;;;;3.83;1.95;;;11.70;99.90;;;;;;4937036;29;20020;-83
2022/10/07 08:17:39;;;;;;;8.90;2.97;;;11.70;99.90;;;;;;4921543;29;20401;-83
2022/10/07 08:20:09;;;;;;;8.77;2.60;;;11.70;99.90;;;;;;4920367;29;20032;-83
2022/10/07 08:22:35;;;;;;;3.55;3.05;;;11.80;99.90;;;;;;4935147;29;20036;-83
2022/10/07 08:25:01;;;;;;;10.80;2.70;;;11.80;99.90;;;;;;4919166;29;20028;-83
2022/10/07 08:27:28;;;;;;;13.65;2.90;;;11.80;99.90;;;;;;4918910;29;20028;-83
2022/10/07 08:29:54;;;;;;;13.63;3.28;;;11.90;99.90;;;;;;4935786;29;20395;-83
2022/10/07 08:32:19;;;;;;;7.57;2.35;;;11.90;99.90;;;;;;4917531;29;20017;-84
2022/10/07 08:34:45;;;;;;;6.82;2.08;;;11.90;99.90;;;;;;4916107;29;20028;-84
2022/10/07 08:37:11;;;;;;;6.13;2.08;;;12.00;99.90;;;;;;4901684;29;20044;-83
2022/10/07 08:39:37;;;;;;;8.05;2.53;;;12.10;99.90;;;;;;4934363;29;20032;-83
2022/10/07 08:42:02;;;;;;;8.13;2.80;;;12.10;99.90;;;;;;4934201;29;20040;-84
2022/10/07 08:44:33;;;;;;;6.00;3.05;;;12.20;99.90;;;;;;4932546;29;20032;-83
2022/10/07 08:46:58;;;;;;;;;;;12.20;99.90;;;;;;4916420;29;20091;-84
2022/10/07 08:49:34;;;;;;;6.93;3.05;;;12.30;99.90;;;;;;4932776;29;19907;-84
2022/10/07 08:52:34;;;;;;;6.05;2.33;;;12.30;99.90;;;;;;4930949;29;20032;-84
2022/10/07 08:55:01;;;;;;;9.02;2.80;;;12.40;99.90;;;;;;4926614;29;20075;-84
2022/10/07 08:57:42;;;;;;;5.05;2.40;;;12.50;99.90;;;;;;4914308;29;20044;-83
2022/10/07 09:00:11;;;;;;;2.33;2.10;;;12.50;99.90;;;;;;4931506;29;20043;-84
2022/10/07 09:02:58;;;;;;;8.32;2.88;;;12.60;99.90;;;;;;4931213;29;20032;-84
2022/10/07 09:05:32;;;;;;;3.22;1.65;;;12.60;99.90;;;;;;4931689;29;20040;-84
2022/10/07 09:08:10;;;;;;;9.35;2.67;;;12.70;99.90;;;;;;4931119;29;20024;-83
2022/10/07 09:10:38;;;;;;;7.07;2.65;;;12.80;99.90;;;;;;4913333;29;20056;-84
2022/10/07 09:13:16;;;;;;;6.10;2.35;;;12.80;99.90;;;;;;4929782;29;20043;-84
2022/10/07 09:16:42;;;;;;;8.43;2.63;;;12.90;99.90;;;;;;4927102;29;20043;-84
2022/10/07 09:19:20;;;;;;;2.53;1.60;;;13.00;99.90;;;;;;4918690;29;20032;-84
2022/10/07 09:21:50;;;;;;;8.35;2.67;;;13.10;99.90;;;;;;4928569;29;20092;-84
2022/10/07 09:24:27;;;;;;;5.30;2.53;;;13.20;99.90;;;;;;4932256;29;20056;-84
2022/10/07 09:26:57;;;;;;;8.80;3.72;;;13.30;99.90;;;;;;4932690;29;20032;-84
2022/10/07 09:29:25;;;;;;;5.20;1.92;;;13.30;99.90;;;;;;4925717;29;20032;-84
2022/10/07 09:31:52;;;;;;;5.55;2.13;;;13.40;99.90;;;;;;4913625;29;20032;-84
2022/10/07 09:34:22;;;;;;;6.10;3.28;;;13.50;99.90;;;;;;4913365;29;20089;-84
2022/10/07 09:37:20;;;;;;;9.10;2.22;;;13.60;99.90;;;;;;4912274;29;20028;-84
2022/10/07 09:39:48;;;;;;;4.70;3.67;;;13.60;99.90;;;;;;4910717;29;20044;-84
2022/10/07 09:42:32;;;;;;;10.90;2.97;;;13.70;99.90;;;;;;4913626;29;20028;-84
2022/10/07 09:45:02;;;;;;;16.08;3.85;;;13.70;99.90;;;;;;4912390;29;20406;-84
2022/10/07 09:47:35;;;;;;;4.30;2.13;;;13.70;99.90;;;;;;4913346;29;20052;-84
2022/10/07 09:50:01;;;;;;;8.27;2.25;;;13.80;99.90;;;;;;4911985;29;20033;-84
2022/10/07 09:52:29;;;;;;;14.63;2.50;;;13.80;99.90;;;;;;4913365;29;20033;-84
2022/10/07 09:55:16;;;;;;;7.72;2.50;;;14.00;99.90;;;;;;4913144;29;20055;-84
2022/10/07 09:57:41;;;;;;;11.35;3.45;;;14.00;99.90;;;;;;4911678;29;20041;-84
2022/10/07 10:00:23;;;;;;;4.22;2.40;;;14.10;99.90;;;;;;4896227;29;20048;-84
2022/10/07 10:02:53;;;;;;;6.10;2.30;;;14.20;99.90;;;;;;4913415;29;20056;-84
2022/10/07 10:05:36;;;;;;;;;;;14.20;99.90;;;;;;4913456;29;20116;-84
2022/10/07 10:08:16;;;;;;;3.95;2.05;;;14.30;99.90;;;;;;4927731;29;19967;-84
2022/10/07 10:10:54;;;;;;;9.63;1.85;;;14.30;99.90;;;;;;4911913;29;20040;-85
2022/10/07 10:13:34;;;;;;;12.45;3.80;;;14.40;99.90;;;;;;4896203;29;20474;-84
2022/10/07 10:16:01;;;;;;;;;;;14.50;99.90;;;;;;4913313;29;20096;-84
2022/10/07 10:18:38;;;;;;;4.35;2.13;;;14.50;99.90;;;;;;4927038;29;19947;-85
2022/10/07 10:21:29;;;;;;;10.70;3.22;;;14.60;99.90;;;;;;4911677;29;20040;-85
2022/10/07 10:23:59;;;;;;;8.98;2.55;;;14.50;99.90;;;;;;4911350;29;20036;-84
2022/10/07 10:26:36;;;;;;;7.68;2.20;;;14.60;99.90;;;;;;4913079;29;20033;-84
2022/10/07 10:29:21;;;;;;;9.73;3.95;;;14.70;99.90;;;;;;4911639;29;20037;-85
2022/10/07 10:31:56;;;;;;;10.38;2.83;;;14.90;99.90;;;;;;4911532;29;20033;-84
2022/10/07 10:35:01;;;;;;;7.53;3.10;;;14.90;99.90;;;;;;4910202;29;20424;-84
2022/10/07 10:37:39;;;;;;;11.15;1.88;;;15.00;99.90;;;;;;4912452;29;20037;-84
2022/10/07 10:40:26;;;;;;;10.00;2.55;;;15.10;99.90;;;;;;4924885;29;20042;-85
2022/10/07 10:43:01;;;;;;;6.13;3.13;;;15.20;99.90;;;;;;4929050;29;20028;-85
2022/10/07 10:45:59;;;;;;;6.53;2.22;;;15.30;99.90;;;;;;4911461;29;20041;-85
2022/10/07 10:48:39;;;;;;;4.28;1.80;;;15.30;99.90;;;;;;4935742;29;20080;-84
2022/10/07 10:51:33;;;;;;;8.38;2.35;;;15.40;99.90;;;;;;4931251;29;20417;-85
2022/10/07 10:54:02;;;;;;;13.23;4.03;;;15.50;99.90;;;;;;4917241;29;20032;-85
2022/10/07 10:56:43;;;;;;;11.88;2.45;;;15.50;99.90;;;;;;4928797;29;20066;-84
2022/10/07 10:59:43;;;;;;;5.75;2.20;;;15.50;99.90;;;;;;4917346;29;20058;-85
2022/10/07 11:02:14;;;;;;;4.57;1.48;;;15.50;99.90;;;;;;4929404;29;20064;-85
2022/10/07 11:05:16;;;;;;;6.00;2.13;;;15.60;99.90;;;;;;4912786;29;20056;-85
2022/10/07 11:08:05;;;;;;;6.35;2.22;;;15.60;99.90;;;;;;4926375;29;20067;-85
2022/10/07 11:10:57;;;;;;;6.55;3.05;;;15.70;99.90;;;;;;4921532;29;20402;-85
2022/10/07 11:13:31;;;;;;;9.02;3.05;;;15.80;99.90;;;;;;4912713;29;20545;-85
2022/10/07 11:16:24;;;;;;;8.82;2.90;;;15.80;99.90;;;;;;4912053;29;20064;-85
2022/10/07 11:18:55;;;;;;;4.18;2.75;;;15.80;99.90;;;;;;4917986;29;20028;-85
2022/10/07 11:21:43;;;;;;;9.90;4.50;;;15.70;99.90;;;;;;4908155;29;20127;-85
2022/10/07 11:24:18;;;;;;;6.32;1.55;;;15.80;99.90;;;;;;4912936;29;20401;-85
2022/10/07 11:26:56;;;;;;;9.60;2.88;;;15.80;99.90;;;;;;4928862;29;20063;-85
2022/10/07 11:29:39;;;;;;;9.55;3.05;;;15.90;99.90;;;;;;4922722;29;20033;-85
2022/10/07 11:32:30;;;;;;;8.38;2.70;;;16.10;99.90;;;;;;4918900;29;20064;-85
2022/10/07 11:35:14;;;;;;;8.45;3.65;;;16.20;99.90;;;;;;4911254;29;20040;-85
2022/10/07 11:37:52;;;;;;;27.25;3.15;;;16.30;99.90;;;;;;4910065;29;20085;-85
2022/10/07 11:40:21;;;;;;;8.05;3.30;;;16.40;99.90;;;;;;4913930;29;20037;-85
2022/10/07 11:42:50;;;;;;;4.50;1.65;;;16.40;99.90;;;;;;4911066;29;20032;-85
2022/10/07 11:45:24;;;;;;;7.27;2.53;;;16.40;99.90;;;;;;4925202;29;20032;-85
2022/10/07 11:47:58;;;;;;;5.65;2.85;;;16.40;99.90;;;;;;4929035;29;20036;-85
2022/10/07 11:50:37;;;;;;;4.40;1.45;;;16.60;99.90;;;;;;4921808;29;20100;-85
2022/10/07 11:53:31;;;;;;;2.47;1.55;;;16.60;99.90;;;;;;4909706;29;20080;-85
2022/10/07 11:56:20;;;;;;;10.82;2.72;;;16.70;99.90;;;;;;4910580;29;20068;-84
2022/10/07 11:58:54;;;;;;;3.35;2.40;;;16.70;99.90;;;;;;4910967;29;20059;-84
2022/10/07 12:01:27;;;;;;;10.25;4.20;;;16.80;99.90;;;;;;4910747;29;20044;-85
2022/10/07 12:04:28;;;;;;;8.75;2.88;;;16.80;99.90;;;;;;4942666;29;20048;-85
2022/10/07 12:07:34;;;;;;;9.00;2.88;;;16.80;99.90;;;;;;4869818;29;20037;-85
2022/10/07 12:10:03;;;;;;;3.67;2.65;;;17.00;99.90;;;;;;4929438;29;20048;-84
2022/10/07 12:12:45;;;;;;;16.23;5.22;;;16.90;99.90;;;;;;4926212;29;20036;-85
2022/10/07 12:15:34;;;;;;;19.50;3.05;;;16.90;99.90;;;;;;4910518;29;20442;-84
2022/10/07 12:18:03;;;;;;;9.60;2.88;;;16.90;99.90;;;;;;4933169;29;20032;-87
2022/10/07 12:20:50;;;;;;;7.75;2.78;;;17.00;99.90;;;;;;4929395;29;20040;-87
2022/10/07 12:23:19;;;;;;;11.00;2.33;;;17.00;99.90;;;;;;4910951;29;20028;-87
2022/10/07 12:25:49;;;;;;;4.63;2.67;;;17.00;99.90;;;;;;4938665;29;20037;-87
2022/10/07 12:28:22;;;;;;;;;;;17.00;99.90;;;;;;4907369;29;20024;-87
2022/10/07 12:30:51;;;;;;;3.35;1.95;;;17.00;99.90;;;;;;4924581;29;19911;-87
2022/10/07 12:33:36;;;;;;;5.60;2.77;;;17.10;99.90;;;;;;4895645;29;20017;-88
2022/10/07 12:36:20;;;;;;;11.48;4.07;;;17.20;99.90;;;;;;4912868;29;20036;-86
2022/10/07 12:38:55;;;;;;;14.23;3.03;;;17.20;99.90;;;;;;4924939;29;20036;-86
2022/10/07 12:41:28;;;;;;;24.77;4.88;;;17.30;99.90;;;;;;4910654;29;20033;-87
2022/10/07 12:44:11;;;;;;;20.08;4.65;;;17.20;99.90;;;;;;4914293;29;20059;-86
2022/10/07 12:46:40;;;;;;;14.85;3.65;;;17.20;99.90;;;;;;4907376;29;20028;-87
2022/10/07 12:49:24;;;;;;;11.73;3.63;;;17.30;99.90;;;;;;4922146;29;20052;-88
2022/10/07 12:51:53;;;;;;;9.52;4.05;;;17.30;99.90;;;;;;4896926;29;20036;-87
2022/10/07 12:54:37;;;;;;;12.77;4.65;;;17.40;99.90;;;;;;4910066;29;20039;-86
2022/10/07 12:57:11;;;;;;;19.40;4.15;;;17.40;99.90;;;;;;4928241;29;20032;-87
2022/10/07 13:00:13;;;;;;;11.55;3.97;;;17.40;99.90;;;;;;4904377;29;20037;-88
2022/10/07 13:03:17;;;;;;;27.27;4.88;;;17.40;99.90;;;;;;4905356;29;20049;-86
2022/10/07 13:06:08;;;;;;;7.55;3.42;;;17.40;99.90;;;;;;4914774;29;20053;-86
2022/10/07 13:09:01;;;;;;;11.55;3.80;;;17.40;99.90;;;;;;4914087;29;20064;-86
2022/10/07 13:11:48;;;;;;;7.22;2.58;;;17.60;99.90;;;;;;4904013;29;20120;-86
2022/10/07 13:14:47;;;;;;;14.00;4.20;;;17.60;99.90;;;;;;4934554;29;20044;-86
2022/10/07 13:17:28;;;;;;;13.80;4.07;;;17.70;99.90;;;;;;4918528;29;20110;-86
2022/10/07 13:20:18;;;;;;;10.02;2.25;;;17.70;99.90;;;;;;4923404;29;20032;-86
2022/10/07 13:22:46;;;;;;;8.90;3.33;;;17.70;99.90;;;;;;4937310;29;20036;-86
2022/10/07 13:25:14;;;;;;;5.15;2.30;;;17.70;99.90;;;;;;4932972;29;20036;-86
2022/10/07 13:27:44;;;;;;;13.07;3.65;;;17.80;99.90;;;;;;4947093;29;20043;-86